createdAt,value
2022-08-07T00:02:37.414Z,10.50
2022-08-07T00:04:09.379Z,10.50
2022-08-07T00:06:41.020Z,10.30
2022-08-07T00:09:22.139Z,10.30
2022-08-07T00:11:55.729Z,10.20
2022-08-07T00:14:30.520Z,10.30
2022-08-07T00:17:00.210Z,10.40
2022-08-07T00:19:34.154Z,10.40
2022-08-07T00:22:24.952Z,10.40
2022-08-07T00:25:04.549Z,10.40
2022-08-07T00:27:35.787Z,10.40
2022-08-07T00:30:26.595Z,10.30
2022-08-07T00:32:59.270Z,10.20
2022-08-07T00:35:27.253Z,10.20
2022-08-07T00:37:57.693Z,10.20
2022-08-07T00:40:36.379Z,10.00
2022-08-07T00:43:11.024Z,10.00
2022-08-07T00:45:59.058Z,9.90
2022-08-07T00:48:31.740Z,9.80
2022-08-07T00:51:00.266Z,9.80
2022-08-07T00:53:27.473Z,9.80
2022-08-07T00:56:07.527Z,9.70
2022-08-07T00:58:46.760Z,9.70
2022-08-07T01:01:17.508Z,9.80
2022-08-07T01:03:57.277Z,9.80
2022-08-07T01:06:30.330Z,9.70
2022-08-07T01:09:01.078Z,9.70
2022-08-07T01:12:09.226Z,9.70
2022-08-07T01:14:16.833Z,9.70
2022-08-07T01:16:47.124Z,9.60
2022-08-07T01:19:18.727Z,9.60
2022-08-07T01:21:48.897Z,9.60
2022-08-07T01:24:21.216Z,9.50
2022-08-07T01:26:51.902Z,9.30
2022-08-07T01:29:19.856Z,9.30
2022-08-07T01:31:48.646Z,9.20
2022-08-07T01:34:17.795Z,9.30
2022-08-07T01:36:52.967Z,9.40
2022-08-07T01:39:40.735Z,9.20
2022-08-07T01:42:38.706Z,9.20
2022-08-07T01:45:04.862Z,9.20
2022-08-07T01:48:21.479Z,9.20
2022-08-07T01:50:28.965Z,9.20
2022-08-07T01:52:58.680Z,9.30
2022-08-07T01:55:34.182Z,9.30
2022-08-07T01:58:27.066Z,9.10
2022-08-07T02:01:10.252Z,9.10
2022-08-07T02:03:55.055Z,9.00
2022-08-07T02:06:31.635Z,9.10
2022-08-07T02:09:01.625Z,9.10
2022-08-07T02:12:02.786Z,9.10
2022-08-07T02:14:40.159Z,9.10
2022-08-07T02:17:12.698Z,9.10
2022-08-07T02:20:05.206Z,9.00
2022-08-07T02:22:38.179Z,8.90
2022-08-07T02:25:14.099Z,8.80
2022-08-07T02:27:52.172Z,9.00
2022-08-07T02:30:20.250Z,8.90
2022-08-07T02:33:00.622Z,8.90
2022-08-07T02:36:30.821Z,8.90
2022-08-07T02:38:31.961Z,8.70
2022-08-07T02:41:00.553Z,8.50
2022-08-07T02:43:28.419Z,8.50
2022-08-07T02:46:02.077Z,8.50
2022-08-07T02:48:30.496Z,8.60
2022-08-07T02:51:02.995Z,8.70
2022-08-07T02:53:38.514Z,8.60
2022-08-07T02:56:13.139Z,8.70
2022-08-07T02:58:51.488Z,8.60
2022-08-07T03:01:35.456Z,8.70
2022-08-07T03:04:07.098Z,8.50
2022-08-07T03:06:41.422Z,8.60
2022-08-07T03:09:11.498Z,8.60
2022-08-07T03:11:52.368Z,8.50
2022-08-07T03:14:26.034Z,8.40
2022-08-07T03:16:56.928Z,8.30
2022-08-07T03:19:29.004Z,8.40
2022-08-07T03:22:06.006Z,8.40
2022-08-07T03:24:33.565Z,8.30
2022-08-07T03:27:04.582Z,8.40
2022-08-07T03:29:44.566Z,8.40
2022-08-07T03:32:18.902Z,8.30
2022-08-07T03:35:16.874Z,8.10
2022-08-07T03:37:37.465Z,8.20
2022-08-07T03:40:16.907Z,8.20
2022-08-07T03:42:44.481Z,8.10
2022-08-07T03:45:12.588Z,8.10
2022-08-07T03:47:58.150Z,8.10
2022-08-07T03:50:25.197Z,8.20
2022-08-07T03:52:58.184Z,8.30
2022-08-07T03:55:24.925Z,8.30
2022-08-07T03:59:05.757Z,8.10
2022-08-07T04:01:00.504Z,7.90
2022-08-07T04:03:27.645Z,7.70
2022-08-07T04:06:10.267Z,7.60
2022-08-07T04:08:57.817Z,7.70
2022-08-07T04:12:25.549Z,7.90
2022-08-07T04:14:37.101Z,7.90
2022-08-07T04:17:04.913Z,8.00
2022-08-07T04:19:52.385Z,8.10
2022-08-07T04:22:27.574Z,8.10
2022-08-07T04:24:58.050Z,8.10
2022-08-07T04:27:26.449Z,8.10
2022-08-07T04:30:01.349Z,8.00
2022-08-07T04:32:34.484Z,8.00
2022-08-07T04:35:11.277Z,7.90
2022-08-07T04:37:40.508Z,7.80
2022-08-07T04:40:26.618Z,8.00
2022-08-07T04:42:53.585Z,8.10
2022-08-07T04:45:57.407Z,8.10
2022-08-07T04:48:19.048Z,7.90
2022-08-07T04:51:09.075Z,7.90
2022-08-07T04:54:01.486Z,8.00
2022-08-07T04:58:16.616Z,8.10
2022-08-07T05:00:09.453Z,8.10
2022-08-07T05:03:17.117Z,8.00
2022-08-07T05:06:20.085Z,7.90
2022-08-07T05:09:09.107Z,8.10
2022-08-07T05:11:57.103Z,8.30
2022-08-07T05:14:53.976Z,8.40
2022-08-07T05:17:51.454Z,8.50
2022-08-07T05:20:17.519Z,8.70
2022-08-07T05:22:46.975Z,8.90
2022-08-07T05:25:26.228Z,8.90
2022-08-07T05:28:19.923Z,9.00
2022-08-07T05:30:48.466Z,9.20
2022-08-07T05:33:18.053Z,9.30
2022-08-07T05:35:49.451Z,9.40
2022-08-07T05:38:59.873Z,9.50
2022-08-07T05:41:12.338Z,9.60
2022-08-07T05:44:07.571Z,9.70
2022-08-07T05:46:34.402Z,10.20
2022-08-07T05:49:01.650Z,10.60
2022-08-07T05:51:40.037Z,10.90
2022-08-07T05:54:09.466Z,11.60
2022-08-07T05:56:47.807Z,12.20
2022-08-07T05:59:20.990Z,12.90
2022-08-07T06:01:49.306Z,13.90
2022-08-07T06:04:18.313Z,14.70
2022-08-07T06:06:47.766Z,15.30
2022-08-07T06:10:03.184Z,15.80
2022-08-07T06:12:10.854Z,15.60
2022-08-07T06:14:43.093Z,16.70
2022-08-07T06:17:19.142Z,17.50
2022-08-07T06:20:03.290Z,16.90
2022-08-07T06:22:38.818Z,17.40
2022-08-07T06:25:10.222Z,18.00
2022-08-07T06:27:44.333Z,18.70
2022-08-07T06:30:35.518Z,17.90
2022-08-07T06:33:15.620Z,18.00
2022-08-07T06:35:47.779Z,17.90
2022-08-07T06:38:30.380Z,17.60
2022-08-07T06:41:00.328Z,17.60
2022-08-07T06:43:39.516Z,17.70
2022-08-07T06:46:12.188Z,18.40
2022-08-07T06:48:42.155Z,19.40
2022-08-07T06:51:30.952Z,21.10
2022-08-07T06:55:29.645Z,20.80
2022-08-07T06:56:51.185Z,21.10
2022-08-07T07:00:14.596Z,21.20
2022-08-07T07:02:48.778Z,20.80
2022-08-07T07:05:12.801Z,21.50
2022-08-07T07:07:59.772Z,22.20
2022-08-07T07:10:33.461Z,23.80
2022-08-07T07:13:14.170Z,24.10
2022-08-07T07:15:54.626Z,23.80
2022-08-07T07:18:48.265Z,24.10
2022-08-07T07:21:27.243Z,24.60
2022-08-07T07:24:13.243Z,24.50
2022-08-07T07:26:49.676Z,23.70
2022-08-07T07:29:38.978Z,22.90
2022-08-07T07:32:14.000Z,23.00
2022-08-07T07:34:46.520Z,23.40
2022-08-07T07:37:45.326Z,23.80
2022-08-07T07:40:10.220Z,24.30
2022-08-07T07:42:43.885Z,24.30
2022-08-07T07:45:22.735Z,25.00
2022-08-07T07:48:11.073Z,25.70
2022-08-07T07:50:40.166Z,27.00
2022-08-07T07:53:20.604Z,27.40
2022-08-07T07:56:01.053Z,28.10
2022-08-07T07:58:40.500Z,28.10
2022-08-07T08:02:01.571Z,28.80
2022-08-07T08:04:09.505Z,28.90
2022-08-07T08:06:40.629Z,28.50
2022-08-07T08:09:20.545Z,28.70
2022-08-07T08:12:01.898Z,30.10
2022-08-07T08:14:36.458Z,30.10
2022-08-07T08:17:56.707Z,30.70
2022-08-07T08:20:19.185Z,30.50
2022-08-07T08:23:08.402Z,31.00
2022-08-07T08:25:58.165Z,31.20
2022-08-07T08:28:38.434Z,31.10
2022-08-07T08:31:14.784Z,31.20
2022-08-07T08:33:50.025Z,30.90
2022-08-07T08:36:29.789Z,31.20
2022-08-07T08:39:00.007Z,31.20
2022-08-07T08:41:58.965Z,30.70
2022-08-07T08:44:41.306Z,30.40
2022-08-07T08:47:27.508Z,31.10
2022-08-07T08:50:28.190Z,31.20
2022-08-07T08:53:09.121Z,31.40
2022-08-07T08:55:54.762Z,32.10
2022-08-07T08:58:59.835Z,33.10
2022-08-07T09:01:49.509Z,32.80
2022-08-07T09:04:41.280Z,32.60
2022-08-07T09:07:58.221Z,32.80
2022-08-07T09:10:44.907Z,33.00
2022-08-07T09:13:37.059Z,33.10
2022-08-07T09:16:29.687Z,33.50
2022-08-07T09:19:53.079Z,32.80
2022-08-07T09:24:35.077Z,33.50
2022-08-07T09:25:54.882Z,33.00
2022-08-07T09:30:01.428Z,33.30
2022-08-07T09:31:51.245Z,33.10
2022-08-07T09:34:29.714Z,33.40
2022-08-07T09:37:07.240Z,33.60
2022-08-07T09:39:57.854Z,33.60
2022-08-07T09:42:50.430Z,34.00
2022-08-07T09:47:25.127Z,34.20
2022-08-07T09:50:01.670Z,33.70
2022-08-07T09:52:10.905Z,34.30
2022-08-07T09:54:51.774Z,35.20
2022-08-07T09:57:56.797Z,34.30
2022-08-07T10:00:50.598Z,33.80
2022-08-07T10:04:06.089Z,34.50
2022-08-07T10:06:36.141Z,34.80
2022-08-07T10:10:00.070Z,35.40
2022-08-07T10:12:52.715Z,36.40
2022-08-07T10:15:43.981Z,36.00
2022-08-07T10:18:47.392Z,36.30
2022-08-07T10:22:12.633Z,35.70
2022-08-07T10:24:38.209Z,35.50
2022-08-07T10:27:51.347Z,35.40
2022-08-07T10:30:27.821Z,35.50
2022-08-07T10:34:04.856Z,35.80
2022-08-07T10:36:36.176Z,35.80
2022-08-07T10:39:41.423Z,36.70
2022-08-07T10:43:06.806Z,36.80
2022-08-07T10:45:57.094Z,37.10
2022-08-07T10:48:51.036Z,36.40
2022-08-07T10:51:57.282Z,35.20
2022-08-07T10:54:42.538Z,35.30
2022-08-07T10:57:38.018Z,35.30
2022-08-07T11:00:09.624Z,35.70
2022-08-07T11:03:23.374Z,35.70
2022-08-07T11:06:15.683Z,35.20
2022-08-07T11:09:00.039Z,36.40
2022-08-07T11:11:37.746Z,36.10
2022-08-07T11:14:44.158Z,36.30
2022-08-07T11:17:10.549Z,36.80
2022-08-07T11:20:06.542Z,35.90
2022-08-07T11:23:07.330Z,36.60
2022-08-07T11:25:50.341Z,36.40
2022-08-07T11:28:36.156Z,36.20
2022-08-07T11:31:37.140Z,36.10
2022-08-07T11:34:17.167Z,35.70
2022-08-07T11:36:49.743Z,36.00
2022-08-07T11:39:19.963Z,36.20
2022-08-07T11:42:29.580Z,36.50
2022-08-07T11:45:00.394Z,37.30
2022-08-07T11:47:56.081Z,37.60
2022-08-07T11:51:41.464Z,37.50
2022-08-07T11:54:38.176Z,37.40
2022-08-07T11:57:59.861Z,36.50
2022-08-07T12:01:06.949Z,36.80
2022-08-07T12:03:58.207Z,37.70
2022-08-07T12:06:57.292Z,37.50
2022-08-07T12:09:42.860Z,36.90
2022-08-07T12:12:18.566Z,36.90
2022-08-07T12:14:55.457Z,35.70
2022-08-07T12:17:59.727Z,36.10
2022-08-07T12:20:51.832Z,35.90
2022-08-07T12:24:07.614Z,35.20
2022-08-07T12:26:53.352Z,34.80
2022-08-07T12:29:42.564Z,35.10
2022-08-07T12:32:28.368Z,34.70
2022-08-07T12:34:56.536Z,34.40
2022-08-07T12:37:28.391Z,33.90
2022-08-07T12:40:43.886Z,33.60
2022-08-07T12:43:10.150Z,33.20
2022-08-07T12:46:04.392Z,32.80
2022-08-07T12:48:52.009Z,33.10
2022-08-07T12:51:46.397Z,32.70
2022-08-07T12:54:38.114Z,32.70
2022-08-07T12:57:09.651Z,32.90
2022-08-07T12:59:54.676Z,32.70
2022-08-07T13:02:49.477Z,32.30
2022-08-07T13:06:03.481Z,32.70
2022-08-07T13:08:24.914Z,32.70
2022-08-07T13:11:31.286Z,32.10
2022-08-07T13:14:38.162Z,32.40
2022-08-07T13:17:23.649Z,32.40
2022-08-07T13:20:27.773Z,32.10
2022-08-07T13:23:03.942Z,31.70
2022-08-07T13:26:00.945Z,31.70
2022-08-07T13:28:39.329Z,31.10
2022-08-07T13:31:15.146Z,30.90
2022-08-07T13:34:33.003Z,30.90
2022-08-07T13:36:59.376Z,31.10
2022-08-07T13:40:34.367Z,30.70
2022-08-07T13:42:25.859Z,30.50
2022-08-07T13:45:40.582Z,30.30
2022-08-07T13:48:07.851Z,30.30
2022-08-07T13:50:44.765Z,30.20
2022-08-07T13:54:00.546Z,30.00
2022-08-07T13:56:35.401Z,30.10
2022-08-07T13:59:20.357Z,30.00
2022-08-07T14:02:10.179Z,29.70
2022-08-07T14:04:56.222Z,29.70
2022-08-07T14:07:28.442Z,29.70
2022-08-07T14:10:21.668Z,29.50
2022-08-07T14:12:57.472Z,29.30
2022-08-07T14:15:31.986Z,29.30
2022-08-07T14:18:24.163Z,29.10
2022-08-07T14:22:01.286Z,29.10
2022-08-07T14:24:04.824Z,29.10
2022-08-07T14:26:54.385Z,28.80
2022-08-07T14:30:02.996Z,28.90
2022-08-07T14:32:15.070Z,28.90
2022-08-07T14:34:46.688Z,28.90
2022-08-07T14:37:16.828Z,28.90
2022-08-07T14:42:35.540Z,28.70
2022-08-07T14:45:48.652Z,28.50
2022-08-07T14:48:28.879Z,28.40
2022-08-07T14:51:03.620Z,28.50
2022-08-07T14:54:03.680Z,28.10
2022-08-07T14:56:30.189Z,28.10
2022-08-07T14:59:01.588Z,28.10
2022-08-07T15:01:42.761Z,28.10
2022-08-07T15:04:25.122Z,28.00
2022-08-07T15:06:52.917Z,28.00
2022-08-07T15:09:57.500Z,28.00
2022-08-07T15:12:25.575Z,27.80
2022-08-07T15:15:23.510Z,27.90
2022-08-07T15:17:58.815Z,27.80
2022-08-07T15:20:55.300Z,27.90
2022-08-07T15:26:31.874Z,27.80
2022-08-07T15:30:09.031Z,27.70
2022-08-07T15:32:01.655Z,27.70
2022-08-07T15:34:50.407Z,27.60
2022-08-07T15:38:04.265Z,27.50
2022-08-07T15:40:34.681Z,27.50
2022-08-07T15:43:53.518Z,27.30
2022-08-07T15:46:31.760Z,27.40
2022-08-07T15:49:12.679Z,27.40
2022-08-07T15:54:33.961Z,27.30
2022-08-07T15:57:03.385Z,27.30
2022-08-07T15:59:40.075Z,27.20
2022-08-07T16:02:23.598Z,27.10
2022-08-07T16:04:59.979Z,27.10
2022-08-07T16:08:31.520Z,27.20
2022-08-07T16:10:27.718Z,27.20
2022-08-07T16:13:17.809Z,27.10
2022-08-07T16:16:42.974Z,27.10
2022-08-07T16:19:09.660Z,26.90
2022-08-07T16:22:04.244Z,26.80
2022-08-07T16:24:56.631Z,26.70
2022-08-07T16:27:47.300Z,26.60
2022-08-07T16:30:31.070Z,26.50
2022-08-07T16:34:02.437Z,26.50
2022-08-07T16:36:08.455Z,26.40
2022-08-07T16:39:04.525Z,26.20
2022-08-07T16:41:54.367Z,26.20
2022-08-07T16:45:15.369Z,26.30
2022-08-07T16:47:51.341Z,26.20
2022-08-07T16:51:20.760Z,26.30
2022-08-07T16:54:11.474Z,26.10
2022-08-07T16:56:53.602Z,26.10
2022-08-07T16:59:46.211Z,26.20
2022-08-07T17:02:51.760Z,26.20
2022-08-07T17:06:19.513Z,26.10
2022-08-07T17:09:09.513Z,26.10
2022-08-07T17:12:04.090Z,25.90
2022-08-07T17:14:42.645Z,25.70
2022-08-07T17:17:44.333Z,25.60
2022-08-07T17:20:30.934Z,25.60
2022-08-07T17:23:20.160Z,25.50
2022-08-07T17:25:55.872Z,25.60
2022-08-07T17:28:49.671Z,25.60
2022-08-07T17:31:23.412Z,25.50
2022-08-07T17:34:15.601Z,25.40
2022-08-07T17:36:58.120Z,25.40
2022-08-07T17:40:05.498Z,25.40
2022-08-07T17:42:59.543Z,25.40
2022-08-07T17:45:35.320Z,25.20
2022-08-07T17:48:30.590Z,25.10
2022-08-07T17:51:23.172Z,25.10
2022-08-07T17:54:39.562Z,25.00
2022-08-07T17:57:24.141Z,24.90
2022-08-07T18:00:02.117Z,24.70
2022-08-07T18:02:32.470Z,24.60
2022-08-07T18:05:22.021Z,24.50
2022-08-07T18:08:24.294Z,24.40
2022-08-07T18:12:06.952Z,24.30
2022-08-07T18:14:16.552Z,24.20
2022-08-07T18:17:07.262Z,24.10
2022-08-07T18:21:05.947Z,24.00
2022-08-07T18:22:52.982Z,23.90
2022-08-07T18:25:40.307Z,23.80
2022-08-07T18:28:35.242Z,23.70
2022-08-07T18:31:18.656Z,23.60
2022-08-07T18:34:37.025Z,23.50
2022-08-07T18:38:58.809Z,23.20
2022-08-07T18:40:42.206Z,23.10
2022-08-07T18:43:42.545Z,22.90
2022-08-07T18:46:24.665Z,22.80
2022-08-07T18:50:30.305Z,22.60
2022-08-07T18:52:38.805Z,22.40
2022-08-07T18:55:57.376Z,22.30
2022-08-07T18:58:55.393Z,22.10
2022-08-07T19:02:18.810Z,21.90
2022-08-07T19:05:10.730Z,21.80
2022-08-07T19:08:03.974Z,21.60
2022-08-07T19:10:49.978Z,21.60
2022-08-07T19:13:25.782Z,21.40
2022-08-07T19:16:04.242Z,21.30
2022-08-07T19:19:13.212Z,21.20
2022-08-07T19:22:04.633Z,21.00
2022-08-07T19:24:50.176Z,20.80
2022-08-07T19:30:55.674Z,20.60
2022-08-07T19:31:00.840Z,20.40
2022-08-07T19:33:10.212Z,20.20
2022-08-07T19:35:46.117Z,20.00
2022-08-07T19:38:17.706Z,19.90
2022-08-07T19:40:50.811Z,19.70
2022-08-07T19:43:49.535Z,19.60
2022-08-07T19:46:18.989Z,19.50
2022-08-07T19:49:05.987Z,19.40
2022-08-07T19:51:53.031Z,19.30
2022-08-07T19:54:33.984Z,19.20
2022-08-07T19:58:00.999Z,19.10
2022-08-07T20:00:08.806Z,19.00
2022-08-07T20:02:52.073Z,19.00
2022-08-07T20:05:25.265Z,18.90
2022-08-07T20:07:59.294Z,18.80
2022-08-07T20:10:35.427Z,18.70
2022-08-07T20:13:27.134Z,18.50
2022-08-07T20:16:00.711Z,18.50
2022-08-07T20:18:33.006Z,18.30
2022-08-07T20:21:14.334Z,18.20
2022-08-07T20:24:00.957Z,18.10
2022-08-07T20:26:44.950Z,18.00
2022-08-07T20:29:46.872Z,17.90
2022-08-07T20:32:05.184Z,17.80
2022-08-07T20:34:50.621Z,17.60
2022-08-07T20:37:36.885Z,17.50
2022-08-07T20:40:33.124Z,17.30
2022-08-07T20:42:57.207Z,17.10
2022-08-07T20:45:33.573Z,17.20
2022-08-07T20:48:28.421Z,17.10
2022-08-07T20:51:02.178Z,17.00
2022-08-07T20:54:03.694Z,17.00
2022-08-07T20:56:28.799Z,17.00
2022-08-07T20:59:01.200Z,16.90
2022-08-07T21:01:46.012Z,16.90
2022-08-07T21:04:22.666Z,16.90
2022-08-07T21:06:55.307Z,16.90
2022-08-07T21:09:52.418Z,16.80
2022-08-07T21:12:29.117Z,16.80
2022-08-07T21:15:02.489Z,16.60
2022-08-07T21:18:06.095Z,16.60
2022-08-07T21:20:30.447Z,16.60
2022-08-07T21:23:08.530Z,16.40
2022-08-07T21:25:52.266Z,16.30
2022-08-07T21:28:48.724Z,16.20
2022-08-07T21:32:10.849Z,16.10
2022-08-07T21:34:55.747Z,16.10
2022-08-07T21:37:58.095Z,16.00
2022-08-07T21:40:43.108Z,15.90
2022-08-07T21:43:16.791Z,15.90
2022-08-07T21:46:08.117Z,15.70
2022-08-07T21:48:55.736Z,15.70
2022-08-07T21:51:51.272Z,15.60
2022-08-07T21:55:00.662Z,15.50
2022-08-07T21:58:09.072Z,15.40
2022-08-07T22:00:42.427Z,15.30
2022-08-07T22:03:31.772Z,15.20
2022-08-07T22:06:30.212Z,15.10
2022-08-07T22:09:10.240Z,15.10
2022-08-07T22:11:53.316Z,15.00
2022-08-07T22:15:00.009Z,15.00
2022-08-07T22:17:35.973Z,14.90
2022-08-07T22:20:23.516Z,14.80
2022-08-07T22:22:57.277Z,14.70
2022-08-07T22:25:58.370Z,14.70
2022-08-07T22:28:42.763Z,14.60
2022-08-07T22:31:59.176Z,14.50
2022-08-07T22:34:31.665Z,14.40
2022-08-07T22:37:17.853Z,14.40
2022-08-07T22:39:53.480Z,14.30
2022-08-07T22:42:26.162Z,14.20
2022-08-07T22:45:02.036Z,14.20
2022-08-07T22:47:49.483Z,14.00
2022-08-07T22:50:35.361Z,14.00
2022-08-07T22:54:05.042Z,14.00
2022-08-07T22:56:13.019Z,14.00
2022-08-07T22:58:57.696Z,13.80
2022-08-07T23:02:01.467Z,13.70
2022-08-07T23:06:07.372Z,13.50
2022-08-07T23:07:57.970Z,13.50
2022-08-07T23:10:41.164Z,13.50
2022-08-07T23:13:10.991Z,13.60
2022-08-07T23:16:06.727Z,13.50
2022-08-07T23:19:15.990Z,13.40
2022-08-07T23:21:54.704Z,13.40
2022-08-07T23:24:45.500Z,13.50
2022-08-07T23:28:22.014Z,13.40
2022-08-07T23:32:49.464Z,13.40
2022-08-07T23:34:37.961Z,13.30
2022-08-07T23:37:37.506Z,13.10
2022-08-07T23:40:33.775Z,13.00
2022-08-07T23:43:21.510Z,12.90
2022-08-07T23:46:10.497Z,12.90
2022-08-07T23:49:50.187Z,12.80
2022-08-07T23:53:00.536Z,12.80
2022-08-07T23:55:53.540Z,12.80
2022-08-07T23:58:21.211Z,12.70
